sensor_id;sensor_type;location;lat;lon;timestamp;P1;durP1;ratioP1;P2;durP2;ratioP2
77701;SDS011;66868;42.708;23.404;2023-05-15T00:01:33;4.97;;;4.68;;
77701;SDS011;66868;42.708;23.404;2023-05-15T00:03:59;6.40;;;4.57;;
77701;SDS011;66868;42.708;23.404;2023-05-15T00:06:25;5.22;;;4.78;;
77701;SDS011;66868;42.708;23.404;2023-05-15T00:08:52;4.55;;;4.25;;
77701;SDS011;66868;42.708;23.404;2023-05-15T00:11:17;4.68;;;4.28;;
77701;SDS011;66868;42.708;23.404;2023-05-15T00:13:43;4.55;;;4.20;;
77701;SDS011;66868;42.708;23.404;2023-05-15T00:16:08;5.00;;;4.70;;
77701;SDS011;66868;42.708;23.404;2023-05-15T00:18:34;5.63;;;4.90;;
77701;SDS011;66868;42.708;23.404;2023-05-15T00:20:59;5.45;;;5.00;;
77701;SDS011;66868;42.708;23.404;2023-05-15T00:23:25;5.90;;;5.50;;
77701;SDS011;66868;42.708;23.404;2023-05-15T00:25:50;5.70;;;5.28;;
77701;SDS011;66868;42.708;23.404;2023-05-15T00:28:16;6.13;;;5.55;;
77701;SDS011;66868;42.708;23.404;2023-05-15T00:30:41;5.70;;;5.30;;
77701;SDS011;66868;42.708;23.404;2023-05-15T00:33:07;6.85;;;6.05;;
77701;SDS011;66868;42.708;23.404;2023-05-15T00:35:32;6.90;;;6.18;;
77701;SDS011;66868;42.708;23.404;2023-05-15T00:37:57;6.93;;;5.53;;
77701;SDS011;66868;42.708;23.404;2023-05-15T00:40:23;6.93;;;6.28;;
77701;SDS011;66868;42.708;23.404;2023-05-15T00:42:51;7.72;;;7.00;;
77701;SDS011;66868;42.708;23.404;2023-05-15T00:45:16;10.10;;;6.70;;
77701;SDS011;66868;42.708;23.404;2023-05-15T00:47:43;7.55;;;6.75;;
77701;SDS011;66868;42.708;23.404;2023-05-15T00:50:10;7.80;;;6.07;;
77701;SDS011;66868;42.708;23.404;2023-05-15T00:52:36;7.38;;;6.70;;
77701;SDS011;66868;42.708;23.404;2023-05-15T00:55:02;6.68;;;6.07;;
77701;SDS011;66868;42.708;23.404;2023-05-15T00:57:29;8.43;;;7.50;;
77701;SDS011;66868;42.708;23.404;2023-05-15T00:59:56;7.25;;;6.70;;
77701;SDS011;66868;42.708;23.404;2023-05-15T01:02:23;7.60;;;7.03;;
77701;SDS011;66868;42.708;23.404;2023-05-15T01:04:48;7.72;;;7.13;;
77701;SDS011;66868;42.708;23.404;2023-05-15T01:07:14;8.23;;;7.60;;
77701;SDS011;66868;42.708;23.404;2023-05-15T01:09:40;9.10;;;8.30;;
77701;SDS011;66868;42.708;23.404;2023-05-15T01:12:07;8.07;;;7.40;;
77701;SDS011;66868;42.708;23.404;2023-05-15T01:14:34;8.20;;;7.43;;
77701;SDS011;66868;42.708;23.404;2023-05-15T01:16:59;9.80;;;8.40;;
77701;SDS011;66868;42.708;23.404;2023-05-15T01:19:25;8.63;;;7.65;;
77701;SDS011;66868;42.708;23.404;2023-05-15T01:27:29;8.85;;;7.85;;
77701;SDS011;66868;42.708;23.404;2023-05-15T01:30:29;8.68;;;7.88;;
77701;SDS011;66868;42.708;23.404;2023-05-15T01:38:45;8.05;;;7.20;;
77701;SDS011;66868;42.708;23.404;2023-05-15T01:44:17;8.10;;;7.40;;
77701;SDS011;66868;42.708;23.404;2023-05-15T01:46:47;7.78;;;7.00;;
77701;SDS011;66868;42.708;23.404;2023-05-15T01:49:16;7.95;;;7.25;;
77701;SDS011;66868;42.708;23.404;2023-05-15T01:51:43;7.47;;;6.88;;
77701;SDS011;66868;42.708;23.404;2023-05-15T01:54:13;7.65;;;6.97;;
77701;SDS011;66868;42.708;23.404;2023-05-15T01:56:40;8.55;;;7.72;;
77701;SDS011;66868;42.708;23.404;2023-05-15T01:59:09;8.48;;;7.68;;
77701;SDS011;66868;42.708;23.404;2023-05-15T02:01:37;13.30;;;7.78;;
77701;SDS011;66868;42.708;23.404;2023-05-15T02:04:02;9.30;;;7.60;;
77701;SDS011;66868;42.708;23.404;2023-05-15T02:06:28;9.30;;;8.43;;
77701;SDS011;66868;42.708;23.404;2023-05-15T02:08:56;9.40;;;8.27;;
77701;SDS011;66868;42.708;23.404;2023-05-15T02:11:22;7.93;;;7.32;;
77701;SDS011;66868;42.708;23.404;2023-05-15T02:13:47;9.88;;;7.18;;
77701;SDS011;66868;42.708;23.404;2023-05-15T02:16:13;8.05;;;7.28;;
77701;SDS011;66868;42.708;23.404;2023-05-15T02:18:38;8.40;;;7.68;;
77701;SDS011;66868;42.708;23.404;2023-05-15T02:21:05;7.93;;;7.22;;
77701;SDS011;66868;42.708;23.404;2023-05-15T02:23:30;8.10;;;7.35;;
77701;SDS011;66868;42.708;23.404;2023-05-15T02:29:05;8.95;;;8.10;;
77701;SDS011;66868;42.708;23.404;2023-05-15T02:31:44;10.45;;;8.25;;
77701;SDS011;66868;42.708;23.404;2023-05-15T02:34:25;8.65;;;7.63;;
77701;SDS011;66868;42.708;23.404;2023-05-15T02:36:59;8.52;;;7.85;;
77701;SDS011;66868;42.708;23.404;2023-05-15T02:39:27;9.27;;;7.38;;
77701;SDS011;66868;42.708;23.404;2023-05-15T02:41:53;10.43;;;8.98;;
77701;SDS011;66868;42.708;23.404;2023-05-15T02:44:20;9.50;;;8.60;;
77701;SDS011;66868;42.708;23.404;2023-05-15T02:46:47;9.18;;;8.32;;
77701;SDS011;66868;42.708;23.404;2023-05-15T02:49:14;10.52;;;8.32;;
77701;SDS011;66868;42.708;23.404;2023-05-15T02:51:40;9.38;;;8.45;;
77701;SDS011;66868;42.708;23.404;2023-05-15T02:54:06;8.95;;;7.82;;
77701;SDS011;66868;42.708;23.404;2023-05-15T02:56:33;8.98;;;8.05;;
77701;SDS011;66868;42.708;23.404;2023-05-15T02:58:59;11.25;;;10.05;;
77701;SDS011;66868;42.708;23.404;2023-05-15T03:01:24;9.57;;;8.68;;
77701;SDS011;66868;42.708;23.404;2023-05-15T03:03:50;9.20;;;8.40;;
77701;SDS011;66868;42.708;23.404;2023-05-15T03:06:15;13.48;;;8.55;;
77701;SDS011;66868;42.708;23.404;2023-05-15T03:08:42;9.93;;;8.93;;
77701;SDS011;66868;42.708;23.404;2023-05-15T03:11:08;9.65;;;8.73;;
77701;SDS011;66868;42.708;23.404;2023-05-15T03:13:33;9.48;;;8.45;;
77701;SDS011;66868;42.708;23.404;2023-05-15T03:15:58;12.27;;;7.88;;
77701;SDS011;66868;42.708;23.404;2023-05-15T03:18:24;8.93;;;8.02;;
77701;SDS011;66868;42.708;23.404;2023-05-15T03:20:50;9.20;;;8.30;;
77701;SDS011;66868;42.708;23.404;2023-05-15T03:23:16;9.32;;;8.43;;
77701;SDS011;66868;42.708;23.404;2023-05-15T03:25:42;10.98;;;9.90;;
77701;SDS011;66868;42.708;23.404;2023-05-15T03:28:07;11.73;;;9.40;;
77701;SDS011;66868;42.708;23.404;2023-05-15T03:30:32;10.20;;;9.30;;
77701;SDS011;66868;42.708;23.404;2023-05-15T03:32:58;11.75;;;10.65;;
77701;SDS011;66868;42.708;23.404;2023-05-15T03:35:23;20.33;;;10.90;;
77701;SDS011;66868;42.708;23.404;2023-05-15T03:37:50;12.50;;;10.95;;
77701;SDS011;66868;42.708;23.404;2023-05-15T03:40:15;11.02;;;9.90;;
77701;SDS011;66868;42.708;23.404;2023-05-15T03:42:41;11.95;;;10.35;;
77701;SDS011;66868;42.708;23.404;2023-05-15T03:45:06;12.95;;;11.32;;
77701;SDS011;66868;42.708;23.404;2023-05-15T03:47:32;10.88;;;9.77;;
77701;SDS011;66868;42.708;23.404;2023-05-15T03:49:57;11.68;;;10.25;;
77701;SDS011;66868;42.708;23.404;2023-05-15T03:52:23;10.88;;;9.52;;
77701;SDS011;66868;42.708;23.404;2023-05-15T03:54:48;10.52;;;9.52;;
77701;SDS011;66868;42.708;23.404;2023-05-15T03:57:14;10.05;;;9.20;;
77701;SDS011;66868;42.708;23.404;2023-05-15T03:59:39;13.07;;;9.65;;
77701;SDS011;66868;42.708;23.404;2023-05-15T04:02:05;17.23;;;10.10;;
77701;SDS011;66868;42.708;23.404;2023-05-15T04:04:31;11.43;;;10.30;;
77701;SDS011;66868;42.708;23.404;2023-05-15T04:06:56;10.98;;;9.48;;
77701;SDS011;66868;42.708;23.404;2023-05-15T04:09:22;16.35;;;10.40;;
77701;SDS011;66868;42.708;23.404;2023-05-15T04:11:47;15.10;;;11.55;;
77701;SDS011;66868;42.708;23.404;2023-05-15T04:14:12;11.57;;;9.57;;
77701;SDS011;66868;42.708;23.404;2023-05-15T04:16:38;11.32;;;10.20;;
77701;SDS011;66868;42.708;23.404;2023-05-15T04:19:03;11.55;;;10.15;;
77701;SDS011;66868;42.708;23.404;2023-05-15T04:21:28;12.80;;;11.02;;
77701;SDS011;66868;42.708;23.404;2023-05-15T04:23:54;11.63;;;10.10;;
77701;SDS011;66868;42.708;23.404;2023-05-15T04:26:19;12.40;;;10.50;;
77701;SDS011;66868;42.708;23.404;2023-05-15T04:28:45;13.90;;;10.27;;
77701;SDS011;66868;42.708;23.404;2023-05-15T04:31:10;14.32;;;10.63;;
77701;SDS011;66868;42.708;23.404;2023-05-15T04:33:36;12.15;;;9.95;;
77701;SDS011;66868;42.708;23.404;2023-05-15T04:36:03;13.57;;;10.45;;
77701;SDS011;66868;42.708;23.404;2023-05-15T04:38:30;12.40;;;10.23;;
77701;SDS011;66868;42.708;23.404;2023-05-15T04:40:55;12.02;;;10.18;;
77701;SDS011;66868;42.708;23.404;2023-05-15T04:43:20;11.25;;;10.13;;
77701;SDS011;66868;42.708;23.404;2023-05-15T04:45:46;13.35;;;11.18;;
77701;SDS011;66868;42.708;23.404;2023-05-15T04:48:12;12.23;;;10.65;;
77701;SDS011;66868;42.708;23.404;2023-05-15T04:50:37;17.23;;;13.73;;
77701;SDS011;66868;42.708;23.404;2023-05-15T04:53:02;15.38;;;11.02;;
77701;SDS011;66868;42.708;23.404;2023-05-15T04:55:28;13.05;;;10.98;;
77701;SDS011;66868;42.708;23.404;2023-05-15T04:57:53;16.63;;;10.90;;
77701;SDS011;66868;42.708;23.404;2023-05-15T05:00:18;13.15;;;10.10;;
77701;SDS011;66868;42.708;23.404;2023-05-15T05:02:44;10.65;;;9.65;;
77701;SDS011;66868;42.708;23.404;2023-05-15T05:05:10;11.60;;;9.98;;
77701;SDS011;66868;42.708;23.404;2023-05-15T05:07:35;12.30;;;9.57;;
77701;SDS011;66868;42.708;23.404;2023-05-15T05:10:01;11.90;;;9.52;;
77701;SDS011;66868;42.708;23.404;2023-05-15T05:12:28;11.93;;;9.75;;
77701;SDS011;66868;42.708;23.404;2023-05-15T05:14:53;16.15;;;10.35;;
77701;SDS011;66868;42.708;23.404;2023-05-15T05:17:20;11.23;;;9.88;;
77701;SDS011;66868;42.708;23.404;2023-05-15T05:19:45;11.95;;;9.48;;
77701;SDS011;66868;42.708;23.404;2023-05-15T05:22:11;12.43;;;9.57;;
77701;SDS011;66868;42.708;23.404;2023-05-15T05:24:36;11.95;;;10.68;;
77701;SDS011;66868;42.708;23.404;2023-05-15T05:27:02;11.50;;;10.02;;
77701;SDS011;66868;42.708;23.404;2023-05-15T05:29:28;12.07;;;10.48;;
77701;SDS011;66868;42.708;23.404;2023-05-15T05:31:54;16.98;;;12.20;;
77701;SDS011;66868;42.708;23.404;2023-05-15T05:34:20;15.90;;;11.82;;
77701;SDS011;66868;42.708;23.404;2023-05-15T05:36:45;15.95;;;11.95;;
77701;SDS011;66868;42.708;23.404;2023-05-15T05:39:11;16.92;;;11.77;;
77701;SDS011;66868;42.708;23.404;2023-05-15T05:41:36;21.70;;;13.20;;
77701;SDS011;66868;42.708;23.404;2023-05-15T05:44:02;20.45;;;13.20;;
77701;SDS011;66868;42.708;23.404;2023-05-15T05:46:27;16.73;;;13.10;;
77701;SDS011;66868;42.708;23.404;2023-05-15T05:48:53;18.63;;;13.73;;
77701;SDS011;66868;42.708;23.404;2023-05-15T05:51:18;21.75;;;13.63;;
77701;SDS011;66868;42.708;23.404;2023-05-15T05:53:44;20.80;;;14.73;;
77701;SDS011;66868;42.708;23.404;2023-05-15T05:56:09;17.50;;;13.65;;
77701;SDS011;66868;42.708;23.404;2023-05-15T05:58:35;24.17;;;14.40;;
77701;SDS011;66868;42.708;23.404;2023-05-15T06:01:00;20.70;;;14.18;;
77701;SDS011;66868;42.708;23.404;2023-05-15T06:03:26;19.58;;;14.30;;
77701;SDS011;66868;42.708;23.404;2023-05-15T06:05:52;17.00;;;14.18;;
77701;SDS011;66868;42.708;23.404;2023-05-15T06:08:17;24.80;;;14.32;;
77701;SDS011;66868;42.708;23.404;2023-05-15T06:10:43;21.92;;;15.45;;
77701;SDS011;66868;42.708;23.404;2023-05-15T06:13:10;19.85;;;14.65;;
77701;SDS011;66868;42.708;23.404;2023-05-15T06:15:36;16.13;;;12.82;;
77701;SDS011;66868;42.708;23.404;2023-05-15T06:18:01;22.52;;;14.27;;
77701;SDS011;66868;42.708;23.404;2023-05-15T06:20:27;21.85;;;14.30;;
77701;SDS011;66868;42.708;23.404;2023-05-15T06:22:52;19.13;;;13.90;;
77701;SDS011;66868;42.708;23.404;2023-05-15T06:25:18;16.50;;;12.77;;
77701;SDS011;66868;42.708;23.404;2023-05-15T06:27:43;20.25;;;13.18;;
77701;SDS011;66868;42.708;23.404;2023-05-15T06:30:09;17.30;;;12.02;;
77701;SDS011;66868;42.708;23.404;2023-05-15T06:32:35;16.83;;;12.20;;
77701;SDS011;66868;42.708;23.404;2023-05-15T06:35:00;17.48;;;11.98;;
77701;SDS011;66868;42.708;23.404;2023-05-15T06:37:26;14.45;;;12.13;;
77701;SDS011;66868;42.708;23.404;2023-05-15T06:39:52;15.90;;;12.00;;
77701;SDS011;66868;42.708;23.404;2023-05-15T06:42:18;15.50;;;11.95;;
77701;SDS011;66868;42.708;23.404;2023-05-15T06:44:43;13.13;;;11.75;;
77701;SDS011;66868;42.708;23.404;2023-05-15T06:47:09;17.58;;;12.05;;
77701;SDS011;66868;42.708;23.404;2023-05-15T06:49:34;13.75;;;11.82;;
77701;SDS011;66868;42.708;23.404;2023-05-15T06:52:00;14.00;;;10.98;;
77701;SDS011;66868;42.708;23.404;2023-05-15T06:54:25;19.77;;;12.23;;
77701;SDS011;66868;42.708;23.404;2023-05-15T06:56:50;17.55;;;11.77;;
77701;SDS011;66868;42.708;23.404;2023-05-15T06:59:16;14.00;;;11.73;;
77701;SDS011;66868;42.708;23.404;2023-05-15T07:01:41;16.42;;;11.70;;
77701;SDS011;66868;42.708;23.404;2023-05-15T07:04:06;12.98;;;11.27;;
77701;SDS011;66868;42.708;23.404;2023-05-15T07:06:32;16.35;;;12.13;;
77701;SDS011;66868;42.708;23.404;2023-05-15T07:08:58;11.95;;;10.63;;
77701;SDS011;66868;42.708;23.404;2023-05-15T07:11:23;13.00;;;11.70;;
77701;SDS011;66868;42.708;23.404;2023-05-15T07:13:50;13.65;;;11.93;;
77701;SDS011;66868;42.708;23.404;2023-05-15T07:16:16;17.33;;;11.15;;
77701;SDS011;66868;42.708;23.404;2023-05-15T07:18:41;14.18;;;11.70;;
77701;SDS011;66868;42.708;23.404;2023-05-15T07:21:07;18.27;;;12.13;;
77701;SDS011;66868;42.708;23.404;2023-05-15T07:23:32;15.23;;;12.20;;
77701;SDS011;66868;42.708;23.404;2023-05-15T07:25:57;16.27;;;12.23;;
77701;SDS011;66868;42.708;23.404;2023-05-15T07:28:23;13.10;;;11.88;;
77701;SDS011;66868;42.708;23.404;2023-05-15T07:30:48;15.15;;;11.57;;
77701;SDS011;66868;42.708;23.404;2023-05-15T07:33:13;18.48;;;11.95;;
77701;SDS011;66868;42.708;23.404;2023-05-15T07:35:39;14.18;;;12.05;;
77701;SDS011;66868;42.708;23.404;2023-05-15T07:38:05;13.85;;;12.15;;
77701;SDS011;66868;42.708;23.404;2023-05-15T07:40:30;15.52;;;11.77;;
77701;SDS011;66868;42.708;23.404;2023-05-15T07:42:55;17.15;;;13.15;;
77701;SDS011;66868;42.708;23.404;2023-05-15T07:45:21;14.82;;;12.35;;
77701;SDS011;66868;42.708;23.404;2023-05-15T07:47:47;20.65;;;11.32;;
77701;SDS011;66868;42.708;23.404;2023-05-15T07:50:13;14.23;;;12.70;;
77701;SDS011;66868;42.708;23.404;2023-05-15T07:52:39;15.23;;;11.95;;
77701;SDS011;66868;42.708;23.404;2023-05-15T07:55:06;14.90;;;12.15;;
77701;SDS011;66868;42.708;23.404;2023-05-15T07:57:32;14.55;;;12.32;;
77701;SDS011;66868;42.708;23.404;2023-05-15T07:59:57;14.40;;;12.52;;
77701;SDS011;66868;42.708;23.404;2023-05-15T08:02:23;14.52;;;12.32;;
77701;SDS011;66868;42.708;23.404;2023-05-15T08:04:48;16.75;;;12.35;;
77701;SDS011;66868;42.708;23.404;2023-05-15T08:07:14;23.92;;;13.55;;
77701;SDS011;66868;42.708;23.404;2023-05-15T08:09:39;18.55;;;13.88;;
77701;SDS011;66868;42.708;23.404;2023-05-15T08:12:15;16.80;;;13.90;;
77701;SDS011;66868;42.708;23.404;2023-05-15T08:14:41;17.58;;;14.32;;
77701;SDS011;66868;42.708;23.404;2023-05-15T08:17:07;22.65;;;14.15;;
77701;SDS011;66868;42.708;23.404;2023-05-15T08:19:32;17.52;;;13.90;;
77701;SDS011;66868;42.708;23.404;2023-05-15T08:21:57;15.73;;;13.57;;
77701;SDS011;66868;42.708;23.404;2023-05-15T08:24:23;19.00;;;13.38;;
77701;SDS011;66868;42.708;23.404;2023-05-15T08:26:48;18.33;;;13.35;;
77701;SDS011;66868;42.708;23.404;2023-05-15T08:29:14;18.67;;;14.43;;
77701;SDS011;66868;42.708;23.404;2023-05-15T08:31:40;17.00;;;13.30;;
77701;SDS011;66868;42.708;23.404;2023-05-15T08:34:06;16.33;;;13.05;;
77701;SDS011;66868;42.708;23.404;2023-05-15T08:36:31;18.67;;;13.88;;
77701;SDS011;66868;42.708;23.404;2023-05-15T08:38:57;15.77;;;13.13;;
77701;SDS011;66868;42.708;23.404;2023-05-15T08:44:21;13.40;;;12.00;;
77701;SDS011;66868;42.708;23.404;2023-05-15T08:46:47;16.92;;;13.32;;
77701;SDS011;66868;42.708;23.404;2023-05-15T08:49:13;14.88;;;11.73;;
77701;SDS011;66868;42.708;23.404;2023-05-15T08:51:58;15.35;;;11.32;;
77701;SDS011;66868;42.708;23.404;2023-05-15T08:54:24;12.32;;;11.02;;
77701;SDS011;66868;42.708;23.404;2023-05-15T08:56:50;13.38;;;11.82;;
77701;SDS011;66868;42.708;23.404;2023-05-15T08:59:16;15.45;;;12.35;;
77701;SDS011;66868;42.708;23.404;2023-05-15T09:01:41;14.23;;;11.63;;
77701;SDS011;66868;42.708;23.404;2023-05-15T09:04:07;14.73;;;12.32;;
77701;SDS011;66868;42.708;23.404;2023-05-15T09:06:32;16.05;;;11.57;;
77701;SDS011;66868;42.708;23.404;2023-05-15T09:08:58;14.10;;;11.20;;
77701;SDS011;66868;42.708;23.404;2023-05-15T09:11:25;18.88;;;11.30;;
77701;SDS011;66868;42.708;23.404;2023-05-15T09:13:50;18.05;;;11.30;;
77701;SDS011;66868;42.708;23.404;2023-05-15T09:16:16;14.80;;;11.38;;
77701;SDS011;66868;42.708;23.404;2023-05-15T09:18:42;12.30;;;11.05;;
77701;SDS011;66868;42.708;23.404;2023-05-15T09:21:24;14.43;;;11.55;;
77701;SDS011;66868;42.708;23.404;2023-05-15T09:23:51;12.52;;;11.00;;
77701;SDS011;66868;42.708;23.404;2023-05-15T09:26:19;32.22;;;22.77;;
77701;SDS011;66868;42.708;23.404;2023-05-15T09:28:45;26.75;;;20.00;;
77701;SDS011;66868;42.708;23.404;2023-05-15T09:31:10;17.27;;;12.30;;
77701;SDS011;66868;42.708;23.404;2023-05-15T09:33:38;13.82;;;12.43;;
77701;SDS011;66868;42.708;23.404;2023-05-15T09:36:06;12.95;;;11.10;;
77701;SDS011;66868;42.708;23.404;2023-05-15T09:38:32;14.82;;;11.70;;
77701;SDS011;66868;42.708;23.404;2023-05-15T09:41:04;16.05;;;11.30;;
77701;SDS011;66868;42.708;23.404;2023-05-15T09:43:38;13.02;;;11.60;;
77701;SDS011;66868;42.708;23.404;2023-05-15T09:46:04;11.90;;;10.70;;
77701;SDS011;66868;42.708;23.404;2023-05-15T09:48:32;11.98;;;10.25;;
77701;SDS011;66868;42.708;23.404;2023-05-15T09:50:58;11.35;;;10.15;;
77701;SDS011;66868;42.708;23.404;2023-05-15T09:53:24;11.15;;;10.05;;
77701;SDS011;66868;42.708;23.404;2023-05-15T09:55:52;11.82;;;10.70;;
77701;SDS011;66868;42.708;23.404;2023-05-15T09:58:18;13.18;;;10.50;;
77701;SDS011;66868;42.708;23.404;2023-05-15T10:00:44;11.45;;;10.38;;
77701;SDS011;66868;42.708;23.404;2023-05-15T10:03:11;11.35;;;10.27;;
77701;SDS011;66868;42.708;23.404;2023-05-15T10:05:37;11.82;;;9.30;;
77701;SDS011;66868;42.708;23.404;2023-05-15T10:08:03;11.98;;;10.77;;
77701;SDS011;66868;42.708;23.404;2023-05-15T10:10:29;12.23;;;9.73;;
77701;SDS011;66868;42.708;23.404;2023-05-15T10:12:56;10.65;;;9.45;;
77701;SDS011;66868;42.708;23.404;2023-05-15T10:15:23;10.65;;;9.57;;
77701;SDS011;66868;42.708;23.404;2023-05-15T10:17:50;10.82;;;9.63;;
77701;SDS011;66868;42.708;23.404;2023-05-15T10:20:17;15.50;;;9.00;;
77701;SDS011;66868;42.708;23.404;2023-05-15T10:22:46;8.88;;;8.05;;
77701;SDS011;66868;42.708;23.404;2023-05-15T10:27:50;14.00;;;8.90;;
77701;SDS011;66868;42.708;23.404;2023-05-15T10:30:16;11.40;;;8.50;;
77701;SDS011;66868;42.708;23.404;2023-05-15T10:32:42;9.60;;;8.25;;
77701;SDS011;66868;42.708;23.404;2023-05-15T10:35:08;10.18;;;9.15;;
77701;SDS011;66868;42.708;23.404;2023-05-15T10:37:35;10.68;;;9.30;;
77701;SDS011;66868;42.708;23.404;2023-05-15T10:40:02;12.68;;;10.43;;
77701;SDS011;66868;42.708;23.404;2023-05-15T10:42:30;14.73;;;11.57;;
77701;SDS011;66868;42.708;23.404;2023-05-15T10:44:57;13.48;;;11.32;;
77701;SDS011;66868;42.708;23.404;2023-05-15T10:47:26;13.48;;;11.15;;
77701;SDS011;66868;42.708;23.404;2023-05-15T10:49:53;13.63;;;11.82;;
77701;SDS011;66868;42.708;23.404;2023-05-15T10:52:19;14.20;;;12.38;;
77701;SDS011;66868;42.708;23.404;2023-05-15T10:54:44;14.18;;;11.30;;
77701;SDS011;66868;42.708;23.404;2023-05-15T10:57:10;11.65;;;10.38;;
77701;SDS011;66868;42.708;23.404;2023-05-15T10:59:35;11.30;;;10.18;;
77701;SDS011;66868;42.708;23.404;2023-05-15T11:04:46;18.83;;;11.63;;
77701;SDS011;66868;42.708;23.404;2023-05-15T11:07:15;17.88;;;10.82;;
77701;SDS011;66868;42.708;23.404;2023-05-15T11:09:42;12.52;;;10.80;;
77701;SDS011;66868;42.708;23.404;2023-05-15T11:12:08;15.20;;;11.82;;
77701;SDS011;66868;42.708;23.404;2023-05-15T11:14:36;14.10;;;10.95;;
77701;SDS011;66868;42.708;23.404;2023-05-15T11:17:02;14.10;;;11.50;;
77701;SDS011;66868;42.708;23.404;2023-05-15T11:27:18;15.95;;;11.98;;
77701;SDS011;66868;42.708;23.404;2023-05-15T11:32:40;13.43;;;9.77;;
77701;SDS011;66868;42.708;23.404;2023-05-15T11:35:10;12.57;;;10.80;;
77701;SDS011;66868;42.708;23.404;2023-05-15T11:37:47;14.55;;;11.02;;
77701;SDS011;66868;42.708;23.404;2023-05-15T11:40:23;11.88;;;10.75;;
77701;SDS011;66868;42.708;23.404;2023-05-15T11:43:06;18.00;;;10.18;;
77701;SDS011;66868;42.708;23.404;2023-05-15T11:45:41;11.02;;;10.02;;
77701;SDS011;66868;42.708;23.404;2023-05-15T11:48:11;17.35;;;10.10;;
77701;SDS011;66868;42.708;23.404;2023-05-15T11:50:37;16.33;;;10.90;;
77701;SDS011;66868;42.708;23.404;2023-05-15T11:53:03;13.50;;;10.57;;
77701;SDS011;66868;42.708;23.404;2023-05-15T11:55:31;12.15;;;11.00;;
77701;SDS011;66868;42.708;23.404;2023-05-15T11:57:58;16.10;;;9.90;;
77701;SDS011;66868;42.708;23.404;2023-05-15T12:00:24;12.82;;;10.23;;
77701;SDS011;66868;42.708;23.404;2023-05-15T12:02:49;10.18;;;9.18;;
77701;SDS011;66868;42.708;23.404;2023-05-15T12:05:15;12.10;;;9.48;;
77701;SDS011;66868;42.708;23.404;2023-05-15T12:07:41;14.15;;;10.32;;
77701;SDS011;66868;42.708;23.404;2023-05-15T12:10:10;12.55;;;9.98;;
77701;SDS011;66868;42.708;23.404;2023-05-15T12:12:43;12.73;;;9.45;;
77701;SDS011;66868;42.708;23.404;2023-05-15T12:15:13;15.15;;;9.55;;
77701;SDS011;66868;42.708;23.404;2023-05-15T12:17:41;11.90;;;8.80;;
77701;SDS011;66868;42.708;23.404;2023-05-15T12:20:17;43.90;;;28.80;;
77701;SDS011;66868;42.708;23.404;2023-05-15T12:22:43;29.50;;;20.48;;
77701;SDS011;66868;42.708;23.404;2023-05-15T12:25:09;9.02;;;8.23;;
77701;SDS011;66868;42.708;23.404;2023-05-15T12:27:36;15.05;;;8.35;;
77701;SDS011;66868;42.708;23.404;2023-05-15T12:30:03;10.15;;;7.22;;
77701;SDS011;66868;42.708;23.404;2023-05-15T12:32:31;9.20;;;7.53;;
77701;SDS011;66868;42.708;23.404;2023-05-15T12:34:59;8.18;;;7.40;;
77701;SDS011;66868;42.708;23.404;2023-05-15T12:37:25;8.75;;;7.75;;
77701;SDS011;66868;42.708;23.404;2023-05-15T12:39:55;8.77;;;8.00;;
77701;SDS011;66868;42.708;23.404;2023-05-15T12:42:23;12.88;;;8.18;;
77701;SDS011;66868;42.708;23.404;2023-05-15T12:44:53;10.27;;;8.70;;
77701;SDS011;66868;42.708;23.404;2023-05-15T12:47:23;8.57;;;7.78;;
77701;SDS011;66868;42.708;23.404;2023-05-15T12:49:50;9.88;;;8.88;;
77701;SDS011;66868;42.708;23.404;2023-05-15T12:52:20;13.93;;;9.32;;
77701;SDS011;66868;42.708;23.404;2023-05-15T12:54:45;11.65;;;8.68;;
77701;SDS011;66868;42.708;23.404;2023-05-15T12:57:11;14.05;;;8.27;;
77701;SDS011;66868;42.708;23.404;2023-05-15T12:59:38;8.73;;;7.88;;
77701;SDS011;66868;42.708;23.404;2023-05-15T13:02:08;9.13;;;8.13;;
77701;SDS011;66868;42.708;23.404;2023-05-15T13:04:34;8.25;;;7.45;;
77701;SDS011;66868;42.708;23.404;2023-05-15T13:07:00;12.32;;;8.27;;
77701;SDS011;66868;42.708;23.404;2023-05-15T13:09:25;9.25;;;8.52;;
77701;SDS011;66868;42.708;23.404;2023-05-15T13:11:53;9.32;;;8.50;;
77701;SDS011;66868;42.708;23.404;2023-05-15T13:14:19;8.80;;;8.15;;
77701;SDS011;66868;42.708;23.404;2023-05-15T13:16:46;10.02;;;9.05;;
77701;SDS011;66868;42.708;23.404;2023-05-15T13:19:12;10.57;;;9.45;;
77701;SDS011;66868;42.708;23.404;2023-05-15T13:21:37;10.30;;;8.57;;
77701;SDS011;66868;42.708;23.404;2023-05-15T13:24:03;8.88;;;7.97;;
77701;SDS011;66868;42.708;23.404;2023-05-15T13:26:29;11.02;;;9.63;;
77701;SDS011;66868;42.708;23.404;2023-05-15T13:28:55;12.98;;;8.88;;
77701;SDS011;66868;42.708;23.404;2023-05-15T13:31:20;10.45;;;8.00;;
77701;SDS011;66868;42.708;23.404;2023-05-15T13:33:46;12.32;;;8.20;;
77701;SDS011;66868;42.708;23.404;2023-05-15T13:36:12;10.57;;;8.70;;
77701;SDS011;66868;42.708;23.404;2023-05-15T13:38:37;18.65;;;8.98;;
77701;SDS011;66868;42.708;23.404;2023-05-15T13:41:03;11.48;;;8.63;;
77701;SDS011;66868;42.708;23.404;2023-05-15T13:43:28;12.65;;;9.07;;
77701;SDS011;66868;42.708;23.404;2023-05-15T13:45:54;9.13;;;8.27;;
77701;SDS011;66868;42.708;23.404;2023-05-15T13:48:19;10.25;;;8.45;;
77701;SDS011;66868;42.708;23.404;2023-05-15T13:50:45;13.57;;;8.68;;
77701;SDS011;66868;42.708;23.404;2023-05-15T13:53:10;11.73;;;8.45;;
77701;SDS011;66868;42.708;23.404;2023-05-15T13:55:40;13.13;;;8.15;;
77701;SDS011;66868;42.708;23.404;2023-05-15T13:58:10;14.57;;;7.95;;
77701;SDS011;66868;42.708;23.404;2023-05-15T14:00:38;23.60;;;15.52;;
77701;SDS011;66868;42.708;23.404;2023-05-15T14:03:06;25.45;;;21.52;;
77701;SDS011;66868;42.708;23.404;2023-05-15T14:05:31;25.77;;;18.85;;
77701;SDS011;66868;42.708;23.404;2023-05-15T14:07:57;50.47;;;36.38;;
77701;SDS011;66868;42.708;23.404;2023-05-15T14:10:23;14.48;;;10.25;;
77701;SDS011;66868;42.708;23.404;2023-05-15T14:12:48;11.88;;;6.97;;
77701;SDS011;66868;42.708;23.404;2023-05-15T14:15:14;8.27;;;6.00;;
77701;SDS011;66868;42.708;23.404;2023-05-15T14:17:40;8.98;;;7.05;;
77701;SDS011;66868;42.708;23.404;2023-05-15T14:20:07;6.38;;;5.03;;
77701;SDS011;66868;42.708;23.404;2023-05-15T14:22:34;8.02;;;5.65;;
77701;SDS011;66868;42.708;23.404;2023-05-15T14:25:01;8.68;;;5.28;;
77701;SDS011;66868;42.708;23.404;2023-05-15T14:27:27;7.18;;;5.75;;
77701;SDS011;66868;42.708;23.404;2023-05-15T14:29:53;7.97;;;5.35;;
77701;SDS011;66868;42.708;23.404;2023-05-15T14:32:20;5.78;;;4.88;;
77701;SDS011;66868;42.708;23.404;2023-05-15T14:34:46;6.68;;;5.50;;
77701;SDS011;66868;42.708;23.404;2023-05-15T14:37:12;5.85;;;5.30;;
77701;SDS011;66868;42.708;23.404;2023-05-15T14:39:37;9.10;;;5.15;;
77701;SDS011;66868;42.708;23.404;2023-05-15T14:42:03;7.43;;;4.95;;
77701;SDS011;66868;42.708;23.404;2023-05-15T14:44:28;4.70;;;4.47;;
77701;SDS011;66868;42.708;23.404;2023-05-15T14:47:03;6.95;;;4.45;;
77701;SDS011;66868;42.708;23.404;2023-05-15T14:49:38;14.15;;;5.00;;
77701;SDS011;66868;42.708;23.404;2023-05-15T14:52:05;8.80;;;4.90;;